sensor_id;sensor_type;location;lat;lon;timestamp;pressure;altitude;pressure_sealevel;temperature;humidity
55277;BME280;41136;51.478;-2.610;2024-02-26T00:00:43;98971.13;;;3.04;100.00
55277;BME280;41136;51.478;-2.610;2024-02-26T00:03:09;98975.90;;;2.57;100.00
55277;BME280;41136;51.478;-2.610;2024-02-26T00:05:34;98988.46;;;2.83;100.00
55277;BME280;41136;51.478;-2.610;2024-02-26T00:07:59;98994.19;;;2.77;100.00
55277;BME280;41136;51.478;-2.610;2024-02-26T00:10:25;99005.60;;;2.42;100.00
55277;BME280;41136;51.478;-2.610;2024-02-26T00:12:50;99016.68;;;2.12;100.00
55277;BME280;41136;51.478;-2.610;2024-02-26T00:15:16;99013.82;;;2.41;100.00
55277;BME280;41136;51.478;-2.610;2024-02-26T00:17:41;99010.63;;;2.80;100.00
55277;BME280;41136;51.478;-2.610;2024-02-26T00:20:07;99027.94;;;3.18;100.00
55277;BME280;41136;51.478;-2.610;2024-02-26T00:22:32;99031.55;;;2.68;100.00
55277;BME280;41136;51.478;-2.610;2024-02-26T00:24:57;99047.50;;;2.23;100.00
55277;BME280;41136;51.478;-2.610;2024-02-26T00:27:23;99043.21;;;2.28;100.00
55277;BME280;41136;51.478;-2.610;2024-02-26T00:29:48;99042.28;;;2.62;100.00
55277;BME280;41136;51.478;-2.610;2024-02-26T00:32:14;99053.59;;;2.19;100.00
55277;BME280;41136;51.478;-2.610;2024-02-26T00:34:39;99055.74;;;1.99;100.00
55277;BME280;41136;51.478;-2.610;2024-02-26T00:37:04;99064.06;;;2.48;100.00
55277;BME280;41136;51.478;-2.610;2024-02-26T00:39:30;99056.23;;;2.44;100.00
55277;BME280;41136;51.478;-2.610;2024-02-26T00:41:55;99073.05;;;2.28;100.00
55277;BME280;41136;51.478;-2.610;2024-02-26T00:44:20;99078.01;;;2.11;100.00
55277;BME280;41136;51.478;-2.610;2024-02-26T00:46:46;99076.49;;;2.11;100.00
55277;BME280;41136;51.478;-2.610;2024-02-26T00:49:11;99086.18;;;2.28;100.00
55277;BME280;41136;51.478;-2.610;2024-02-26T00:51:37;99090.99;;;2.46;100.00
55277;BME280;41136;51.478;-2.610;2024-02-26T00:54:02;99098.87;;;2.68;100.00
55277;BME280;41136;51.478;-2.610;2024-02-26T00:56:27;99108.79;;;3.05;100.00
55277;BME280;41136;51.478;-2.610;2024-02-26T00:58:53;99107.46;;;2.54;100.00
55277;BME280;41136;51.478;-2.610;2024-02-26T01:01:18;99116.63;;;3.02;100.00
55277;BME280;41136;51.478;-2.610;2024-02-26T01:03:43;99117.26;;;3.15;100.00
55277;BME280;41136;51.478;-2.610;2024-02-26T01:06:09;99123.80;;;3.07;100.00
55277;BME280;41136;51.478;-2.610;2024-02-26T01:08:35;99127.58;;;2.71;100.00
55277;BME280;41136;51.478;-2.610;2024-02-26T01:11:00;99127.30;;;2.71;100.00
55277;BME280;41136;51.478;-2.610;2024-02-26T01:13:25;99138.92;;;2.71;100.00
55277;BME280;41136;51.478;-2.610;2024-02-26T01:15:51;99144.63;;;2.47;100.00
55277;BME280;41136;51.478;-2.610;2024-02-26T01:18:16;99147.15;;;2.22;100.00
55277;BME280;41136;51.478;-2.610;2024-02-26T01:20:41;99153.25;;;2.34;100.00
55277;BME280;41136;51.478;-2.610;2024-02-26T01:29:34;99177.17;;;1.94;100.00
55277;BME280;41136;51.478;-2.610;2024-02-26T01:32:00;99176.80;;;1.98;100.00
55277;BME280;41136;51.478;-2.610;2024-02-26T01:34:25;99176.84;;;1.81;100.00
55277;BME280;41136;51.478;-2.610;2024-02-26T01:36:50;99189.81;;;1.84;100.00
55277;BME280;41136;51.478;-2.610;2024-02-26T01:39:16;99202.25;;;3.02;100.00
55277;BME280;41136;51.478;-2.610;2024-02-26T01:41:41;99205.33;;;2.25;100.00
55277;BME280;41136;51.478;-2.610;2024-02-26T01:44:07;99223.88;;;1.95;100.00
55277;BME280;41136;51.478;-2.610;2024-02-26T01:46:33;99227.69;;;2.14;100.00
55277;BME280;41136;51.478;-2.610;2024-02-26T01:48:57;99229.64;;;2.08;100.00
55277;BME280;41136;51.478;-2.610;2024-02-26T01:51:28;99234.76;;;2.09;100.00
55277;BME280;41136;51.478;-2.610;2024-02-26T01:53:55;99248.49;;;2.70;100.00
55277;BME280;41136;51.478;-2.610;2024-02-26T01:56:15;99250.34;;;2.06;100.00
55277;BME280;41136;51.478;-2.610;2024-02-26T01:58:39;99247.33;;;1.81;100.00
55277;BME280;41136;51.478;-2.610;2024-02-26T02:01:05;99263.68;;;1.95;100.00
55277;BME280;41136;51.478;-2.610;2024-02-26T02:03:30;99265.71;;;2.06;100.00
55277;BME280;41136;51.478;-2.610;2024-02-26T02:05:55;99268.24;;;2.07;100.00
55277;BME280;41136;51.478;-2.610;2024-02-26T02:08:22;99273.90;;;2.01;100.00
55277;BME280;41136;51.478;-2.610;2024-02-26T02:10:46;99284.81;;;2.19;100.00
55277;BME280;41136;51.478;-2.610;2024-02-26T02:13:12;99288.13;;;2.87;100.00
55277;BME280;41136;51.478;-2.610;2024-02-26T02:15:37;99289.01;;;2.35;100.00
55277;BME280;41136;51.478;-2.610;2024-02-26T02:18:03;99290.34;;;2.33;100.00
55277;BME280;41136;51.478;-2.610;2024-02-26T02:20:49;99301.07;;;1.92;100.00
55277;BME280;41136;51.478;-2.610;2024-02-26T02:22:53;99304.53;;;2.26;100.00
55277;BME280;41136;51.478;-2.610;2024-02-26T02:25:19;99299.54;;;2.69;100.00
55277;BME280;41136;51.478;-2.610;2024-02-26T02:27:44;99298.58;;;2.50;100.00
55277;BME280;41136;51.478;-2.610;2024-02-26T02:30:11;99302.88;;;2.69;100.00
55277;BME280;41136;51.478;-2.610;2024-02-26T02:32:37;99305.10;;;2.68;100.00
55277;BME280;41136;51.478;-2.610;2024-02-26T02:35:00;99311.36;;;2.38;100.00
55277;BME280;41136;51.478;-2.610;2024-02-26T02:37:26;99311.44;;;2.53;100.00
55277;BME280;41136;51.478;-2.610;2024-02-26T02:39:51;99328.38;;;2.47;100.00
55277;BME280;41136;51.478;-2.610;2024-02-26T02:42:16;99327.66;;;2.75;100.00
55277;BME280;41136;51.478;-2.610;2024-02-26T02:44:42;99325.63;;;2.26;100.00
55277;BME280;41136;51.478;-2.610;2024-02-26T02:47:07;99338.11;;;2.28;100.00
55277;BME280;41136;51.478;-2.610;2024-02-26T02:49:32;99346.82;;;2.08;100.00
55277;BME280;41136;51.478;-2.610;2024-02-26T02:51:58;99353.00;;;2.52;100.00
55277;BME280;41136;51.478;-2.610;2024-02-26T02:54:23;99351.41;;;2.93;100.00
55277;BME280;41136;51.478;-2.610;2024-02-26T02:56:49;99377.57;;;1.98;100.00
55277;BME280;41136;51.478;-2.610;2024-02-26T02:59:14;99376.02;;;2.17;100.00
55277;BME280;41136;51.478;-2.610;2024-02-26T03:01:40;99386.56;;;2.27;100.00
55277;BME280;41136;51.478;-2.610;2024-02-26T03:04:05;99376.73;;;1.97;100.00
55277;BME280;41136;51.478;-2.610;2024-02-26T03:06:30;99391.17;;;1.93;100.00
55277;BME280;41136;51.478;-2.610;2024-02-26T03:08:55;99386.18;;;2.24;100.00
55277;BME280;41136;51.478;-2.610;2024-02-26T03:11:21;99393.46;;;1.85;100.00
55277;BME280;41136;51.478;-2.610;2024-02-26T03:13:46;99402.45;;;1.55;100.00
55277;BME280;41136;51.478;-2.610;2024-02-26T03:16:12;99395.34;;;2.30;100.00
55277;BME280;41136;51.478;-2.610;2024-02-26T03:18:38;99403.56;;;2.08;100.00
55277;BME280;41136;51.478;-2.610;2024-02-26T03:21:03;99421.18;;;1.90;100.00
55277;BME280;41136;51.478;-2.610;2024-02-26T03:23:29;99413.28;;;1.95;100.00
55277;BME280;41136;51.478;-2.610;2024-02-26T03:25:54;99418.49;;;2.09;100.00
55277;BME280;41136;51.478;-2.610;2024-02-26T03:28:19;99430.13;;;1.97;100.00
55277;BME280;41136;51.478;-2.610;2024-02-26T03:30:44;99439.42;;;1.68;100.00
55277;BME280;41136;51.478;-2.610;2024-02-26T03:33:10;99435.49;;;2.30;100.00
55277;BME280;41136;51.478;-2.610;2024-02-26T03:35:35;99447.09;;;1.87;100.00
55277;BME280;41136;51.478;-2.610;2024-02-26T03:38:01;99449.21;;;1.96;100.00
55277;BME280;41136;51.478;-2.610;2024-02-26T03:40:27;99442.29;;;2.16;100.00
55277;BME280;41136;51.478;-2.610;2024-02-26T03:42:51;99460.34;;;1.66;100.00
55277;BME280;41136;51.478;-2.610;2024-02-26T03:45:18;99458.70;;;1.77;100.00
55277;BME280;41136;51.478;-2.610;2024-02-26T03:47:42;99479.26;;;1.53;100.00
55277;BME280;41136;51.478;-2.610;2024-02-26T03:50:08;99483.58;;;1.64;100.00
55277;BME280;41136;51.478;-2.610;2024-02-26T03:52:33;99490.50;;;1.74;100.00
55277;BME280;41136;51.478;-2.610;2024-02-26T03:54:59;99487.52;;;2.33;100.00
55277;BME280;41136;51.478;-2.610;2024-02-26T03:57:24;99497.08;;;1.41;100.00
55277;BME280;41136;51.478;-2.610;2024-02-26T04:02:16;99506.28;;;1.26;100.00
55277;BME280;41136;51.478;-2.610;2024-02-26T04:04:40;99519.08;;;1.81;100.00
55277;BME280;41136;51.478;-2.610;2024-02-26T04:07:05;99528.20;;;1.88;100.00
55277;BME280;41136;51.478;-2.610;2024-02-26T04:09:31;99530.71;;;2.52;100.00
55277;BME280;41136;51.478;-2.610;2024-02-26T04:11:56;99534.43;;;1.87;100.00
55277;BME280;41136;51.478;-2.610;2024-02-26T04:14:22;99537.30;;;2.03;100.00
55277;BME280;41136;51.478;-2.610;2024-02-26T04:16:47;99551.38;;;1.58;100.00
55277;BME280;41136;51.478;-2.610;2024-02-26T04:22:50;99565.63;;;1.43;100.00
55277;BME280;41136;51.478;-2.610;2024-02-26T04:25:16;99571.65;;;1.45;100.00
55277;BME280;41136;51.478;-2.610;2024-02-26T04:27:41;99588.81;;;1.53;100.00
55277;BME280;41136;51.478;-2.610;2024-02-26T04:30:07;99585.70;;;1.33;100.00
55277;BME280;41136;51.478;-2.610;2024-02-26T04:32:32;99604.25;;;2.39;100.00
55277;BME280;41136;51.478;-2.610;2024-02-26T04:34:57;99597.74;;;2.14;100.00
55277;BME280;41136;51.478;-2.610;2024-02-26T04:37:23;99614.20;;;1.71;100.00
55277;BME280;41136;51.478;-2.610;2024-02-26T04:39:48;99624.36;;;1.74;100.00
55277;BME280;41136;51.478;-2.610;2024-02-26T04:42:14;99625.77;;;2.42;100.00
55277;BME280;41136;51.478;-2.610;2024-02-26T04:44:41;99622.45;;;1.80;100.00
55277;BME280;41136;51.478;-2.610;2024-02-26T04:47:04;99634.83;;;1.50;100.00
55277;BME280;41136;51.478;-2.610;2024-02-26T04:49:30;99640.94;;;2.02;100.00
55277;BME280;41136;51.478;-2.610;2024-02-26T04:51:55;99652.45;;;1.61;100.00
55277;BME280;41136;51.478;-2.610;2024-02-26T04:54:21;99656.31;;;2.30;100.00
55277;BME280;41136;51.478;-2.610;2024-02-26T04:56:46;99664.48;;;2.14;100.00
55277;BME280;41136;51.478;-2.610;2024-02-26T04:59:11;99666.78;;;2.45;100.00
55277;BME280;41136;51.478;-2.610;2024-02-26T05:01:36;99673.55;;;2.17;100.00
55277;BME280;41136;51.478;-2.610;2024-02-26T05:04:02;99673.14;;;2.09;100.00
55277;BME280;41136;51.478;-2.610;2024-02-26T05:06:27;99684.01;;;2.54;100.00
55277;BME280;41136;51.478;-2.610;2024-02-26T05:08:53;99693.41;;;2.08;100.00
55277;BME280;41136;51.478;-2.610;2024-02-26T05:11:18;99703.19;;;2.39;100.00
55277;BME280;41136;51.478;-2.610;2024-02-26T05:13:43;99705.24;;;2.06;100.00
55277;BME280;41136;51.478;-2.610;2024-02-26T05:16:09;99709.94;;;2.06;100.00
55277;BME280;41136;51.478;-2.610;2024-02-26T05:18:38;99724.61;;;2.17;100.00
55277;BME280;41136;51.478;-2.610;2024-02-26T05:21:00;99725.35;;;1.79;100.00
55277;BME280;41136;51.478;-2.610;2024-02-26T05:23:26;99737.27;;;2.24;100.00
55277;BME280;41136;51.478;-2.610;2024-02-26T05:25:51;99742.77;;;1.99;100.00
55277;BME280;41136;51.478;-2.610;2024-02-26T05:28:21;99747.34;;;2.38;100.00
55277;BME280;41136;51.478;-2.610;2024-02-26T05:30:41;99761.92;;;1.87;100.00
55277;BME280;41136;51.478;-2.610;2024-02-26T05:33:07;99762.58;;;2.38;100.00
55277;BME280;41136;51.478;-2.610;2024-02-26T05:35:32;99769.57;;;2.28;100.00
55277;BME280;41136;51.478;-2.610;2024-02-26T05:37:58;99772.58;;;1.93;100.00
55277;BME280;41136;51.478;-2.610;2024-02-26T05:40:23;99778.04;;;1.83;100.00
55277;BME280;41136;51.478;-2.610;2024-02-26T05:42:48;99781.84;;;2.04;100.00
55277;BME280;41136;51.478;-2.610;2024-02-26T05:45:14;99787.44;;;2.10;100.00
55277;BME280;41136;51.478;-2.610;2024-02-26T05:47:39;99797.62;;;2.43;100.00
55277;BME280;41136;51.478;-2.610;2024-02-26T05:50:10;99801.79;;;2.38;100.00
55277;BME280;41136;51.478;-2.610;2024-02-26T05:52:30;99811.13;;;2.38;100.00
55277;BME280;41136;51.478;-2.610;2024-02-26T05:54:56;99811.98;;;2.18;100.00
55277;BME280;41136;51.478;-2.610;2024-02-26T05:57:21;99817.06;;;2.21;100.00
55277;BME280;41136;51.478;-2.610;2024-02-26T05:59:47;99836.77;;;1.44;100.00
55277;BME280;41136;51.478;-2.610;2024-02-26T06:02:12;99848.20;;;2.18;100.00
55277;BME280;41136;51.478;-2.610;2024-02-26T06:04:37;99850.05;;;1.66;100.00
55277;BME280;41136;51.478;-2.610;2024-02-26T06:07:03;99854.25;;;1.85;100.00
55277;BME280;41136;51.478;-2.610;2024-02-26T06:09:33;99859.76;;;1.66;100.00
55277;BME280;41136;51.478;-2.610;2024-02-26T06:11:54;99857.63;;;1.56;100.00
55277;BME280;41136;51.478;-2.610;2024-02-26T06:14:20;99863.59;;;2.28;100.00
55277;BME280;41136;51.478;-2.610;2024-02-26T06:16:45;99864.33;;;1.68;100.00
55277;BME280;41136;51.478;-2.610;2024-02-26T06:19:10;99878.29;;;1.90;100.00
55277;BME280;41136;51.478;-2.610;2024-02-26T06:21:40;99883.56;;;1.54;100.00
55277;BME280;41136;51.478;-2.610;2024-02-26T06:24:01;99881.86;;;1.84;100.00
55277;BME280;41136;51.478;-2.610;2024-02-26T06:26:26;99895.02;;;1.54;100.00
55277;BME280;41136;51.478;-2.610;2024-02-26T06:28:53;99905.90;;;1.76;100.00
55277;BME280;41136;51.478;-2.610;2024-02-26T06:31:17;99919.40;;;2.17;100.00
55277;BME280;41136;51.478;-2.610;2024-02-26T06:33:43;99921.95;;;2.07;100.00
55277;BME280;41136;51.478;-2.610;2024-02-26T06:36:09;99929.01;;;2.32;100.00
55277;BME280;41136;51.478;-2.610;2024-02-26T06:38:39;99925.99;;;1.95;100.00
55277;BME280;41136;51.478;-2.610;2024-02-26T06:41:10;99942.46;;;1.88;100.00
55277;BME280;41136;51.478;-2.610;2024-02-26T06:43:24;99937.91;;;2.13;100.00
55277;BME280;41136;51.478;-2.610;2024-02-26T06:45:50;99935.64;;;1.81;100.00
55277;BME280;41136;51.478;-2.610;2024-02-26T06:48:15;99948.40;;;1.67;100.00
55277;BME280;41136;51.478;-2.610;2024-02-26T06:50:41;99954.84;;;1.67;100.00
55277;BME280;41136;51.478;-2.610;2024-02-26T06:53:06;99959.12;;;1.86;100.00
55277;BME280;41136;51.478;-2.610;2024-02-26T06:55:32;99968.94;;;1.81;100.00
55277;BME280;41136;51.478;-2.610;2024-02-26T06:57:57;99977.77;;;2.03;100.00
55277;BME280;41136;51.478;-2.610;2024-02-26T07:00:23;99973.99;;;2.02;100.00
55277;BME280;41136;51.478;-2.610;2024-02-26T07:02:48;99980.40;;;2.30;100.00
55277;BME280;41136;51.478;-2.610;2024-02-26T07:05:13;100002.51;;;1.78;100.00
55277;BME280;41136;51.478;-2.610;2024-02-26T07:07:39;100010.05;;;2.04;100.00
55277;BME280;41136;51.478;-2.610;2024-02-26T07:10:12;100009.37;;;2.15;100.00
55277;BME280;41136;51.478;-2.610;2024-02-26T07:12:30;100016.93;;;2.04;100.00
55277;BME280;41136;51.478;-2.610;2024-02-26T07:14:55;100022.68;;;1.58;100.00
55277;BME280;41136;51.478;-2.610;2024-02-26T07:17:20;100039.51;;;1.84;100.00
55277;BME280;41136;51.478;-2.610;2024-02-26T07:19:46;100027.51;;;1.61;100.00
55277;BME280;41136;51.478;-2.610;2024-02-26T07:22:11;100036.54;;;1.77;100.00
55277;BME280;41136;51.478;-2.610;2024-02-26T07:24:38;100040.50;;;1.57;100.00
55277;BME280;41136;51.478;-2.610;2024-02-26T07:27:02;100046.25;;;2.00;100.00
55277;BME280;41136;51.478;-2.610;2024-02-26T07:29:27;100055.73;;;2.10;100.00
55277;BME280;41136;51.478;-2.610;2024-02-26T07:31:53;100060.00;;;2.10;100.00
55277;BME280;41136;51.478;-2.610;2024-02-26T07:34:18;100061.85;;;1.79;100.00
55277;BME280;41136;51.478;-2.610;2024-02-26T07:36:44;100071.99;;;1.80;100.00
55277;BME280;41136;51.478;-2.610;2024-02-26T07:39:09;100078.97;;;2.04;100.00
55277;BME280;41136;51.478;-2.610;2024-02-26T07:41:34;100081.11;;;2.05;100.00
55277;BME280;41136;51.478;-2.610;2024-02-26T07:44:00;100091.04;;;2.54;100.00
55277;BME280;41136;51.478;-2.610;2024-02-26T07:46:25;100104.79;;;2.07;100.00
55277;BME280;41136;51.478;-2.610;2024-02-26T07:48:51;100094.72;;;2.19;100.00
55277;BME280;41136;51.478;-2.610;2024-02-26T07:51:16;100104.62;;;2.23;100.00
55277;BME280;41136;51.478;-2.610;2024-02-26T07:53:48;100103.13;;;1.63;100.00
55277;BME280;41136;51.478;-2.610;2024-02-26T07:56:07;100107.85;;;1.69;100.00
55277;BME280;41136;51.478;-2.610;2024-02-26T07:58:32;100119.94;;;1.58;100.00
55277;BME280;41136;51.478;-2.610;2024-02-26T08:00:57;100125.00;;;1.94;100.00
55277;BME280;41136;51.478;-2.610;2024-02-26T08:03:23;100126.51;;;1.96;100.00
55277;BME280;41136;51.478;-2.610;2024-02-26T08:05:48;100131.48;;;2.03;100.00
55277;BME280;41136;51.478;-2.610;2024-02-26T08:08:14;100143.26;;;1.72;100.00
55277;BME280;41136;51.478;-2.610;2024-02-26T08:10:39;100151.63;;;1.55;100.00
55277;BME280;41136;51.478;-2.610;2024-02-26T08:13:05;100162.11;;;1.60;100.00
55277;BME280;41136;51.478;-2.610;2024-02-26T08:15:30;100171.83;;;1.93;100.00
55277;BME280;41136;51.478;-2.610;2024-02-26T08:17:56;100167.84;;;2.31;100.00
55277;BME280;41136;51.478;-2.610;2024-02-26T08:20:21;100179.14;;;1.71;100.00
55277;BME280;41136;51.478;-2.610;2024-02-26T08:22:47;100183.28;;;1.21;100.00
55277;BME280;41136;51.478;-2.610;2024-02-26T08:25:12;100180.34;;;1.63;100.00
55277;BME280;41136;51.478;-2.610;2024-02-26T08:27:37;100193.94;;;1.73;100.00
55277;BME280;41136;51.478;-2.610;2024-02-26T08:30:03;100194.21;;;1.43;100.00
55277;BME280;41136;51.478;-2.610;2024-02-26T08:32:28;100199.07;;;1.81;100.00
55277;BME280;41136;51.478;-2.610;2024-02-26T08:34:53;100209.33;;;1.60;100.00
55277;BME280;41136;51.478;-2.610;2024-02-26T08:37:19;100209.56;;;2.43;100.00
55277;BME280;41136;51.478;-2.610;2024-02-26T08:39:44;100217.64;;;1.65;100.00
55277;BME280;41136;51.478;-2.610;2024-02-26T08:42:10;100220.25;;;2.29;100.00
55277;BME280;41136;51.478;-2.610;2024-02-26T08:44:35;100216.91;;;1.95;100.00
55277;BME280;41136;51.478;-2.610;2024-02-26T08:47:00;100229.35;;;1.67;100.00
55277;BME280;41136;51.478;-2.610;2024-02-26T08:49:26;100230.99;;;1.45;100.00
55277;BME280;41136;51.478;-2.610;2024-02-26T08:51:51;100233.92;;;1.57;100.00
55277;BME280;41136;51.478;-2.610;2024-02-26T08:54:17;100227.23;;;1.70;100.00
55277;BME280;41136;51.478;-2.610;2024-02-26T08:56:42;100223.59;;;2.36;100.00
55277;BME280;41136;51.478;-2.610;2024-02-26T08:59:08;100227.53;;;2.28;100.00
55277;BME280;41136;51.478;-2.610;2024-02-26T09:01:33;100232.40;;;2.58;100.00
55277;BME280;41136;51.478;-2.610;2024-02-26T09:03:58;100237.19;;;2.83;100.00
55277;BME280;41136;51.478;-2.610;2024-02-26T09:06:24;100243.11;;;2.06;100.00
55277;BME280;41136;51.478;-2.610;2024-02-26T09:08:49;100246.74;;;1.98;100.00
55277;BME280;41136;51.478;-2.610;2024-02-26T09:11:15;100236.30;;;2.62;100.00
55277;BME280;41136;51.478;-2.610;2024-02-26T09:13:40;100244.96;;;2.79;100.00
55277;BME280;41136;51.478;-2.610;2024-02-26T09:16:06;100244.81;;;2.25;100.00
55277;BME280;41136;51.478;-2.610;2024-02-26T09:18:31;100249.42;;;2.52;100.00
55277;BME280;41136;51.478;-2.610;2024-02-26T09:20:56;100253.73;;;2.88;100.00
55277;BME280;41136;51.478;-2.610;2024-02-26T09:23:22;100259.67;;;2.69;100.00
55277;BME280;41136;51.478;-2.610;2024-02-26T09:25:47;100266.48;;;2.69;100.00
55277;BME280;41136;51.478;-2.610;2024-02-26T09:28:13;100270.10;;;3.16;100.00
55277;BME280;41136;51.478;-2.610;2024-02-26T09:30:38;100275.82;;;2.77;100.00
55277;BME280;41136;51.478;-2.610;2024-02-26T09:33:04;100302.77;;;2.41;100.00
55277;BME280;41136;51.478;-2.610;2024-02-26T09:35:29;100283.43;;;2.97;100.00
55277;BME280;41136;51.478;-2.610;2024-02-26T09:37:54;100290.25;;;2.67;100.00
55277;BME280;41136;51.478;-2.610;2024-02-26T09:40:20;100299.32;;;2.47;100.00
55277;BME280;41136;51.478;-2.610;2024-02-26T09:42:45;100299.36;;;2.58;100.00
55277;BME280;41136;51.478;-2.610;2024-02-26T09:45:17;100305.40;;;2.57;100.00
55277;BME280;41136;51.478;-2.610;2024-02-26T09:47:36;100317.07;;;2.60;100.00
55277;BME280;41136;51.478;-2.610;2024-02-26T09:50:02;100305.24;;;2.34;100.00
55277;BME280;41136;51.478;-2.610;2024-02-26T09:52:28;100314.70;;;2.79;100.00
55277;BME280;41136;51.478;-2.610;2024-02-26T09:54:52;100323.97;;;2.70;100.00
55277;BME280;41136;51.478;-2.610;2024-02-26T09:57:18;100319.60;;;2.91;100.00
55277;BME280;41136;51.478;-2.610;2024-02-26T09:59:43;100329.88;;;2.97;100.00
55277;BME280;41136;51.478;-2.610;2024-02-26T10:02:12;100325.45;;;2.68;100.00
55277;BME280;41136;51.478;-2.610;2024-02-26T10:04:34;100336.07;;;2.91;100.00
55277;BME280;41136;51.478;-2.610;2024-02-26T10:06:59;100340.07;;;2.92;100.00
55277;BME280;41136;51.478;-2.610;2024-02-26T10:09:24;100340.59;;;2.74;100.00
55277;BME280;41136;51.478;-2.610;2024-02-26T10:11:50;100343.58;;;3.44;100.00
55277;BME280;41136;51.478;-2.610;2024-02-26T10:14:15;100345.30;;;3.64;100.00
55277;BME280;41136;51.478;-2.610;2024-02-26T10:16:41;100354.24;;;3.18;100.00
55277;BME280;41136;51.478;-2.610;2024-02-26T10:19:06;100360.05;;;2.98;100.00
55277;BME280;41136;51.478;-2.610;2024-02-26T10:21:31;100366.41;;;3.49;100.00
55277;BME280;41136;51.478;-2.610;2024-02-26T10:23:57;100370.62;;;3.03;100.00
55277;BME280;41136;51.478;-2.610;2024-02-26T10:26:22;100376.33;;;2.72;100.00
55277;BME280;41136;51.478;-2.610;2024-02-26T10:28:48;100376.60;;;2.36;100.00
55277;BME280;41136;51.478;-2.610;2024-02-26T10:31:14;100392.25;;;3.09;100.00
55277;BME280;41136;51.478;-2.610;2024-02-26T10:33:39;100396.79;;;3.11;100.00
55277;BME280;41136;51.478;-2.610;2024-02-26T10:36:05;100398.51;;;2.90;100.00
55277;BME280;41136;51.478;-2.610;2024-02-26T10:38:29;100410.14;;;3.18;100.00
55277;BME280;41136;51.478;-2.610;2024-02-26T10:40:55;100417.37;;;2.82;100.00
55277;BME280;41136;51.478;-2.610;2024-02-26T10:43:20;100418.73;;;3.18;100.00
55277;BME280;41136;51.478;-2.610;2024-02-26T10:45:46;100428.65;;;3.69;100.00
55277;BME280;41136;51.478;-2.610;2024-02-26T10:48:13;100431.75;;;3.44;100.00
55277;BME280;41136;51.478;-2.610;2024-02-26T10:50:36;100437.58;;;3.00;100.00
55277;BME280;41136;51.478;-2.610;2024-02-26T10:53:03;100454.12;;;3.49;100.00
55277;BME280;41136;51.478;-2.610;2024-02-26T10:55:29;100431.11;;;2.90;100.00
55277;BME280;41136;51.478;-2.610;2024-02-26T10:57:53;100444.94;;;2.92;100.00
55277;BME280;41136;51.478;-2.610;2024-02-26T11:00:18;100445.84;;;3.17;100.00
55277;BME280;41136;51.478;-2.610;2024-02-26T11:02:45;100452.59;;;3.23;100.00
55277;BME280;41136;51.478;-2.610;2024-02-26T11:05:11;100462.66;;;2.97;100.00
55277;BME280;41136;51.478;-2.610;2024-02-26T11:07:35;100462.45;;;3.16;100.00
55277;BME280;41136;51.478;-2.610;2024-02-26T11:10:00;100475.55;;;3.89;100.00
55277;BME280;41136;51.478;-2.610;2024-02-26T11:12:25;100473.33;;;3.27;100.00
55277;BME280;41136;51.478;-2.610;2024-02-26T11:14:51;100476.28;;;3.28;100.00
55277;BME280;41136;51.478;-2.610;2024-02-26T11:17:18;100476.77;;;3.98;100.00
55277;BME280;41136;51.478;-2.610;2024-02-26T11:19:41;100471.23;;;3.76;100.00
55277;BME280;41136;51.478;-2.610;2024-02-26T11:22:07;100482.09;;;3.59;100.00
55277;BME280;41136;51.478;-2.610;2024-02-26T11:24:32;100489.06;;;3.16;100.00
55277;BME280;41136;51.478;-2.610;2024-02-26T11:27:01;100483.11;;;3.39;100.00
55277;BME280;41136;51.478;-2.610;2024-02-26T11:29:24;100494.73;;;3.74;100.00
55277;BME280;41136;51.478;-2.610;2024-02-26T11:31:48;100494.78;;;3.94;100.00
55277;BME280;41136;51.478;-2.610;2024-02-26T11:34:14;100486.73;;;3.50;100.00
55277;BME280;41136;51.478;-2.610;2024-02-26T11:36:39;100494.14;;;4.34;100.00
55277;BME280;41136;51.478;-2.610;2024-02-26T11:39:05;100506.64;;;3.67;100.00
55277;BME280;41136;51.478;-2.610;2024-02-26T11:41:30;100504.82;;;3.68;100.00
55277;BME280;41136;51.478;-2.610;2024-02-26T11:43:59;100509.46;;;4.35;100.00
55277;BME280;41136;51.478;-2.610;2024-02-26T11:46:25;100515.75;;;4.41;100.00
55277;BME280;41136;51.478;-2.610;2024-02-26T11:48:46;100516.05;;;4.34;100.00
55277;BME280;41136;51.478;-2.610;2024-02-26T11:51:11;100520.40;;;3.65;100.00
55277;BME280;41136;51.478;-2.610;2024-02-26T11:53:45;100514.37;;;3.58;100.00
55277;BME280;41136;51.478;-2.610;2024-02-26T11:58:31;100526.77;;;4.02;100.00
55277;BME280;41136;51.478;-2.610;2024-02-26T12:00:57;100525.24;;;3.90;100.00
55277;BME280;41136;51.478;-2.610;2024-02-26T12:03:18;100522.15;;;4.48;100.00
55277;BME280;41136;51.478;-2.610;2024-02-26T12:05:43;100524.25;;;5.02;100.00
55277;BME280;41136;51.478;-2.610;2024-02-26T12:08:09;100529.84;;;4.83;100.00
55277;BME280;41136;51.478;-2.610;2024-02-26T12:10:36;100532.41;;;5.31;100.00
55277;BME280;41136;51.478;-2.610;2024-02-26T12:13:02;100532.97;;;4.56;100.00
55277;BME280;41136;51.478;-2.610;2024-02-26T12:15:30;100539.29;;;4.41;100.00
55277;BME280;41136;51.478;-2.610;2024-02-26T12:17:51;100545.37;;;4.66;100.00
55277;BME280;41136;51.478;-2.610;2024-02-26T12:20:17;100547.00;;;4.88;100.00
55277;BME280;41136;51.478;-2.610;2024-02-26T12:22:44;100544.49;;;4.26;100.00
55277;BME280;41136;51.478;-2.610;2024-02-26T12:25:08;100551.30;;;4.05;100.00
55277;BME280;41136;51.478;-2.610;2024-02-26T12:27:32;100558.87;;;3.96;100.00
55277;BME280;41136;51.478;-2.610;2024-02-26T12:29:58;100556.76;;;4.72;100.00
55277;BME280;41136;51.478;-2.610;2024-02-26T12:32:23;100549.07;;;5.11;100.00
55277;BME280;41136;51.478;-2.610;2024-02-26T12:34:49;100554.55;;;4.75;100.00
55277;BME280;41136;51.478;-2.610;2024-02-26T12:37:14;100555.42;;;4.55;100.00
55277;BME280;41136;51.478;-2.610;2024-02-26T12:39:39;100555.63;;;5.00;100.00
55277;BME280;41136;51.478;-2.610;2024-02-26T12:42:05;100572.22;;;4.23;100.00
55277;BME280;41136;51.478;-2.610;2024-02-26T12:44:31;100572.94;;;4.20;100.00
55277;BME280;41136;51.478;-2.610;2024-02-26T12:47:00;100578.28;;;4.75;100.00
55277;BME280;41136;51.478;-2.610;2024-02-26T12:49:21;100580.63;;;4.60;100.00